METAR AND TAF INFORMATION

METAR FOR LPMA
ADDS - METARS form results

(0726 UTC 24 July 2021)
Data provider http://aviationweather.gov/metar/data/
 
METAR text: LPMA 240700Z 01011KT 320V050 9999 FEW015 21/15 Q1018
Conditions at: LPMA (FUNCHAL/MADEIRA , PT) observed 0700 UTC 24 July 2021
Temperature: 21.0°C (70°F)
Dewpoint: 15.0°C (59°F) [RH = 69%]
Pressure (altimeter): 30.06 inches Hg (1018.0 mb)
Winds: from the N (10 degrees) at 13 MPH (11 knots; 5.7 m/s)
Visibility: 6 or more miles (10+ km)
Ceiling: at least 12,000 feet AGL
Clouds: few clouds at 1500 feet AGL
Weather: no significant weather observed at this time

METAR text: LPMA 240630Z 02011KT 340V060 9999 SCT015 21/16 Q1018
Conditions at: LPMA (FUNCHAL/MADEIRA , PT) observed 0630 UTC 24 July 2021
Temperature: 21.0°C (70°F)
Dewpoint: 16.0°C (61°F) [RH = 73%]
Pressure (altimeter): 30.06 inches Hg (1018.0 mb)
Winds: from the NNE (20 degrees) at 13 MPH (11 knots; 5.7 m/s)
Visibility: 6 or more miles (10+ km)
Ceiling: at least 12,000 feet AGL
Clouds: scattered clouds at 1500 feet AGL
Weather: no significant weather observed at this time

Forecast for: LPMA (FUNCHAL/MADEIRA , PT)
Text: TAF LPMA 240500Z 2406/2506 01015KT 9999 SCT015
Forecast period: 0600 UTC 24 July 2021 to 0600 UTC 25 July 2021
Forecast type: FROM: standard forecast or significant change
Winds: from the N (10 degrees) at 17 MPH (15 knots; 7.7 m/s)
Visibility: 6 or more miles (10+ km)
Ceiling: at least 12,000 feet AGL
Clouds: scattered clouds at 1500 feet AGL
Weather: no significant weather forecast for this period
Text: TEMPO 2406/2506 02018G30KT
Forecast period: 0600 UTC 24 July 2021 to 0600 UTC 25 July 2021
Forecast type: TEMPORARY: The following changes expected for less than half the time period
Winds: from the NNE (20 degrees) at 21 MPH (18 knots; 9.3 m/s)
gusting to 34 MPH (30 knots; 15.4 m/s)
Visibility: missing
Ceiling: unknown
Clouds: missing
Weather: no significant weather forecast for this period

 

AIRPORT MAP

 

RUNWAY INFORMATION

Runway 05 Runway length 9110 ft Runway width 148 ft
Runway elevation 147 ft Runway displaced threshold 480 ft Runway heading 45
Runway 23 Runway length 9110 ft Runway width 148 ft
Runway elevation 192 ft Runway displaced threshold 490 ft Runway heading 225

 

AIRPORT FREQUENCIES

Type APP Name APP Frequency 119.2 MHZ
Type TWR Name TWR Frequency 118.35 MHZ

 

AIRPORT NEAR NAVIGATION AIDS

Type VOR-DME Name Madeira Frequency 112200 KHZ
Type NDB Name Madeira Frequency 318 KHZ